Česky Dansk Deutsch English Español Suomi Français Magyar Italiano Nederlands norsk Polski Português svenska Türkçe

 

Het Weer

Khoy (Iran)

10:00, 14 augustus 2016 (GMT)

NWNNE
WE
SWSSE
Home            
Khoy Orumieh Tabriz Van Maragheh / Sahand Yerevan Gyanca Airport Kars Saghez Mus Tur-Afb Mosul Ardabil Batman Tbilisi Erzurum Kamishli Zanjan Muhrani Sanandaj Diyarbakir Rasht Ghasre-Shirin Baku / Bine Airport

Om een weerknop op uw website of weblog te plaatsen, copieer onderstaande code en plak die in uw pagina. In het eerste vakje staat HTML-code, in het tweede vakje UBB-code.


Add to Google

Details

Wind speed:2 bf, 6 kn, 3.1 m/s, 6.9 miles/h, 11.1 km/h
Wind direction:NE, 040°
Visibility:Greater than 10000 m, 10 km, 32800 ft, 6.2 miles
Clouds:Ein wenig bewölkt at 3500 ft, 1067 m
Temperature:34°C, 93°F
Gefühlte Temperatur:32°C, 90°F
Dew-point:11°C, 52°F
Atmospheric pressure:1012 hPa, 759.1 mmHg, 29.88 inHg, 0.999 atm
Relative humidity:24.7 %
METAR:OITK 141000Z 04006KT 9999 FEW035 34/11 Q1012

Snelkoppelingen

Actuele weersinformatie van de hele wereld. Voeg locaties toe met het plus (+) symbool. Deze snelkoppelingen kunnen worden toegevoegd aan Google.

Lid van de Technetium groep

website free tracking
StatCounter NetStat W3C Validator

05-10-2022 09:25:59
astro.technetium.be money.technetium.be phote.technetium.be tafeltennistafel.technetium.be www.ligfiets.net